Time;durP1;ratioP1;P1;durP2;ratioP2;P2;SDS_P1;SDS_P2;PMS_P1;PMS_P2;Temp;Humidity;BMP_temperature;BMP_pressure;BME280_temperature;BME280_humidity;BME280_pressure;Samples;Min_cycle;Max_cycle;Signal;HPM_P1;HPM_P2
2021/10/02 00:34:10;;;;;;;1.93;1.80;;;12.00;99.90;;;;;;483915;245;28317;-74
2021/10/02 00:36:03;;;;;;;1.77;1.67;;;12.00;99.90;;;;;;482586;246;28317;-77
2021/10/02 00:38:13;;;;;;;2.33;2.00;;;11.90;99.90;;;;;;483195;246;28359;-77
2021/10/02 00:44:48;;;;;;;2.50;2.30;;;11.80;99.90;;;;;;484068;245;28313;-77
2021/10/02 00:46:49;;;;;;;3.60;2.60;;;11.80;99.90;;;;;;484040;245;28763;-77
2021/10/02 00:48:50;;;;;;;2.37;2.17;;;11.70;99.90;;;;;;484054;245;28810;-77
2021/10/02 00:50:57;;;;;;;2.60;2.00;;;11.70;99.90;;;;;;484035;245;29558;-76
2021/10/02 00:52:53;;;;;;;2.20;2.00;;;11.70;99.90;;;;;;483770;245;28215;-77
2021/10/02 00:54:54;;;;;;;2.30;2.10;;;11.60;99.90;;;;;;484084;245;28245;-76
2021/10/02 00:56:55;;;;;;;2.27;2.07;;;11.60;99.90;;;;;;484028;244;28149;-77
2021/10/02 00:58:57;;;;;;;2.00;1.80;;;11.60;99.90;;;;;;484075;245;28287;-77
2021/10/02 01:00:58;;;;;;;2.60;2.07;;;11.60;99.90;;;;;;484004;245;28243;-76
2021/10/02 01:02:59;;;;;;;2.30;1.63;;;11.50;99.90;;;;;;484069;245;28246;-77
2021/10/02 01:05:00;;;;;;;2.87;2.00;;;11.50;99.90;;;;;;484092;245;27998;-76
2021/10/02 01:07:02;;;;;;;2.00;1.90;;;11.40;99.90;;;;;;484061;245;27950;-76
2021/10/02 01:09:03;;;;;;;3.60;1.90;;;11.40;99.90;;;;;;484008;245;28013;-76
2021/10/02 01:11:04;;;;;;;1.90;1.80;;;11.40;99.90;;;;;;484032;245;28938;-76
2021/10/02 01:13:05;;;;;;;1.93;1.83;;;11.40;99.90;;;;;;485784;239;28480;-76
2021/10/02 01:15:07;;;;;;;1.80;1.70;;;11.40;99.90;;;;;;494037;240;28496;-76
2021/10/02 01:17:08;;;;;;;2.37;2.17;;;11.40;99.90;;;;;;493989;240;28101;-77
2021/10/02 01:19:09;;;;;;;2.23;1.80;;;11.40;99.90;;;;;;493959;240;27908;-76
2021/10/02 01:21:10;;;;;;;2.40;1.87;;;11.40;99.90;;;;;;493997;240;27982;-77
2021/10/02 01:23:12;;;;;;;2.37;2.10;;;11.40;99.90;;;;;;494030;240;27890;-77
2021/10/02 01:25:14;;;;;;;2.03;1.90;;;11.50;99.90;;;;;;494043;240;28054;-76
2021/10/02 01:27:14;;;;;;;2.10;1.87;;;11.50;99.90;;;;;;493973;240;27923;-77
2021/10/02 01:29:16;;;;;;;1.90;1.80;;;11.60;99.90;;;;;;494018;240;28198;-76
2021/10/02 01:31:26;;;;;;;2.20;2.10;;;11.60;99.90;;;;;;494028;240;28249;-77
2021/10/02 01:33:30;;;;;;;1.60;1.50;;;11.60;99.90;;;;;;493455;241;28635;-76
2021/10/02 01:35:36;;;;;;;1.87;1.77;;;11.60;99.90;;;;;;493414;241;27921;-76
2021/10/02 01:37:51;;;;;;;3.60;1.90;;;11.60;99.90;;;;;;479496;247;28173;-77
2021/10/02 01:48:49;;;;;;;3.00;2.00;;;11.70;99.90;;;;;;483599;246;28061;-77
2021/10/02 01:50:51;;;;;;;2.30;1.83;;;11.70;99.90;;;;;;483617;245;27949;-76
2021/10/02 01:52:52;;;;;;;1.63;1.53;;;11.80;99.90;;;;;;483602;245;28085;-76
2021/10/02 01:54:53;;;;;;;3.33;2.20;;;11.70;99.90;;;;;;483617;245;28022;-77
2021/10/02 01:56:54;;;;;;;2.13;1.90;;;11.70;99.90;;;;;;483608;245;27976;-77
2021/10/02 01:58:56;;;;;;;1.83;1.60;;;11.70;99.90;;;;;;483625;245;28259;-76
2021/10/02 02:00:57;;;;;;;1.70;1.60;;;11.70;99.90;;;;;;483604;245;28013;-76
2021/10/02 02:02:58;;;;;;;1.97;1.63;;;11.70;99.90;;;;;;483616;245;28256;-77
2021/10/02 02:04:59;;;;;;;1.30;1.30;;;11.70;99.90;;;;;;483640;245;28093;-76
2021/10/02 02:07:01;;;;;;;1.93;1.60;;;11.70;99.90;;;;;;483637;245;28447;-77
2021/10/02 02:09:02;;;;;;;1.63;1.53;;;11.70;99.90;;;;;;483672;245;28654;-77
2021/10/02 02:11:03;;;;;;;2.50;1.80;;;11.60;99.90;;;;;;483604;245;28813;-77
2021/10/02 02:13:04;;;;;;;2.23;2.03;;;11.60;99.90;;;;;;483666;245;28033;-77
2021/10/02 02:15:06;;;;;;;2.73;2.00;;;11.60;99.90;;;;;;480007;245;28031;-76
2021/10/02 02:17:07;;;;;;;1.77;1.67;;;11.60;99.90;;;;;;485685;244;28089;-77
2021/10/02 02:19:08;;;;;;;3.63;1.90;;;11.70;99.90;;;;;;475194;250;27941;-76
2021/10/02 02:21:09;;;;;;;3.13;2.17;;;11.70;99.90;;;;;;485735;245;28074;-77
2021/10/02 02:23:11;;;;;;;1.67;1.57;;;11.70;99.90;;;;;;475226;249;28164;-76
2021/10/02 02:25:12;;;;;;;2.07;1.60;;;11.70;99.90;;;;;;485711;245;28099;-77
2021/10/02 02:27:13;;;;;;;2.20;2.00;;;11.70;99.90;;;;;;475213;250;27759;-77
2021/10/02 02:29:14;;;;;;;2.40;1.40;;;11.70;99.90;;;;;;485675;245;28374;-77
2021/10/02 02:31:16;;;;;;;2.80;1.60;;;11.80;99.90;;;;;;475243;250;28825;-76
2021/10/02 02:33:17;;;;;;;3.37;1.77;;;11.70;99.90;;;;;;485714;245;28737;-77
2021/10/02 02:35:18;;;;;;;2.13;1.90;;;11.80;99.90;;;;;;475242;249;28655;-76
2021/10/02 02:37:19;;;;;;;1.77;1.67;;;11.80;99.90;;;;;;485694;245;28201;-77
2021/10/02 02:39:21;;;;;;;1.50;1.40;;;11.70;99.90;;;;;;475241;249;28129;-76
2021/10/02 02:41:22;;;;;;;1.53;1.43;;;11.80;99.90;;;;;;485674;245;28311;-77
2021/10/02 02:43:28;;;;;;;1.80;1.70;;;11.80;99.90;;;;;;475247;250;28200;-76
2021/10/02 02:45:24;;;;;;;1.77;1.67;;;11.70;99.90;;;;;;485334;245;28273;-77
2021/10/02 02:47:26;;;;;;;1.87;1.60;;;11.70;99.90;;;;;;485694;245;28043;-76
2021/10/02 02:49:27;;;;;;;1.50;1.40;;;11.80;99.90;;;;;;475222;250;28132;-77
2021/10/02 02:51:28;;;;;;;1.60;1.50;;;11.80;99.90;;;;;;485686;245;28246;-77
2021/10/02 02:53:29;;;;;;;1.80;1.70;;;11.80;99.90;;;;;;475172;249;28083;-76
2021/10/02 02:55:31;;;;;;;2.40;1.50;;;11.80;99.90;;;;;;485691;245;28802;-76
2021/10/02 02:57:32;;;;;;;1.50;1.40;;;11.80;99.90;;;;;;475241;250;28425;-76
2021/10/02 02:59:33;;;;;;;1.70;1.60;;;11.80;99.90;;;;;;485701;245;28628;-77
2021/10/02 03:01:34;;;;;;;1.80;1.70;;;11.80;99.90;;;;;;475237;249;28614;-76
2021/10/02 03:03:36;;;;;;;1.70;1.50;;;11.80;99.90;;;;;;485709;245;28174;-76
2021/10/02 03:05:37;;;;;;;2.40;1.80;;;11.80;99.90;;;;;;475227;248;27868;-76
2021/10/02 03:07:38;;;;;;;2.10;1.90;;;11.80;99.90;;;;;;485681;245;28114;-76
2021/10/02 03:09:39;;;;;;;1.50;1.40;;;11.80;99.90;;;;;;475197;249;28010;-77
2021/10/02 03:11:41;;;;;;;1.60;1.50;;;11.80;99.90;;;;;;485693;245;28165;-76
2021/10/02 03:13:42;;;;;;;1.70;1.60;;;11.70;99.90;;;;;;475199;250;28016;-76
2021/10/02 03:15:43;;;;;;;1.50;1.40;;;11.80;99.90;;;;;;490220;241;27761;-76
2021/10/02 03:17:44;;;;;;;1.83;1.47;;;11.80;99.90;;;;;;492381;241;28045;-77
2021/10/02 03:19:46;;;;;;;3.53;1.67;;;11.80;99.90;;;;;;492348;241;28462;-77
2021/10/02 03:21:47;;;;;;;2.13;1.57;;;11.80;99.90;;;;;;492403;241;27862;-76
2021/10/02 03:23:48;;;;;;;1.40;1.30;;;11.80;99.90;;;;;;492367;241;28418;-76
2021/10/02 03:25:50;;;;;;;2.90;1.70;;;11.90;99.90;;;;;;492367;241;28460;-76
2021/10/02 03:27:51;;;;;;;1.57;1.47;;;11.90;99.90;;;;;;492388;241;28071;-77
2021/10/02 03:29:52;;;;;;;1.50;1.40;;;11.90;99.90;;;;;;492364;241;28199;-77
2021/10/02 03:31:53;;;;;;;1.67;1.57;;;11.90;99.90;;;;;;492358;241;27993;-76
2021/10/02 03:33:54;;;;;;;2.10;1.43;;;12.00;99.90;;;;;;492353;241;28220;-77
2021/10/02 03:35:56;;;;;;;1.60;1.50;;;12.00;99.90;;;;;;492336;241;27996;-76
2021/10/02 03:37:57;;;;;;;2.10;1.53;;;12.00;99.90;;;;;;492353;241;28023;-76
2021/10/02 03:39:58;;;;;;;2.00;1.60;;;12.00;99.90;;;;;;492365;241;28071;-77
2021/10/02 03:41:59;;;;;;;1.90;1.67;;;12.00;99.90;;;;;;492351;241;28356;-77
2021/10/02 03:44:02;;;;;;;1.47;1.37;;;;;;;;;;492270;241;28165;-77
2021/10/02 03:46:03;;;;;;;1.20;1.20;;;12.00;99.90;;;;;;492370;240;27203;-77
2021/10/02 03:48:04;;;;;;;1.70;1.60;;;12.00;99.90;;;;;;492387;240;27925;-76
2021/10/02 03:50:06;;;;;;;1.70;1.60;;;12.00;99.90;;;;;;492294;241;27983;-76
2021/10/02 03:52:07;;;;;;;1.50;1.33;;;12.00;99.90;;;;;;492378;241;27994;-77
2021/10/02 03:54:08;;;;;;;1.60;1.50;;;12.00;99.90;;;;;;492380;241;28034;-76
2021/10/02 03:56:11;;;;;;;1.53;1.43;;;12.00;99.90;;;;;;492387;241;28199;-77
2021/10/02 03:58:11;;;;;;;1.73;1.33;;;11.90;99.90;;;;;;492266;241;28024;-77
2021/10/02 04:00:12;;;;;;;2.57;2.00;;;12.00;99.90;;;;;;492328;241;28566;-76
2021/10/02 04:02:14;;;;;;;1.67;1.57;;;;;;;;;;492340;241;28367;-76
2021/10/02 04:04:16;;;;;;;1.40;1.30;;;12.00;99.90;;;;;;492385;240;27243;-77
2021/10/02 04:06:17;;;;;;;1.50;1.40;;;12.00;99.90;;;;;;492343;241;27984;-77
2021/10/02 04:08:18;;;;;;;2.43;1.70;;;12.00;99.90;;;;;;492364;241;28280;-76
2021/10/02 04:10:19;;;;;;;2.33;1.60;;;12.10;99.90;;;;;;492281;241;28337;-77
2021/10/02 04:12:21;;;;;;;1.60;1.50;;;12.10;99.90;;;;;;492238;241;28571;-76
2021/10/02 04:14:22;;;;;;;1.50;1.40;;;12.10;99.90;;;;;;492314;241;28425;-77
2021/10/02 04:16:23;;;;;;;1.53;1.43;;;12.10;99.90;;;;;;492338;241;27917;-77
2021/10/02 04:18:24;;;;;;;2.50;1.60;;;12.10;99.90;;;;;;492341;241;27980;-77
2021/10/02 04:20:26;;;;;;;1.83;1.50;;;12.10;99.90;;;;;;492333;241;28165;-77
2021/10/02 04:22:27;;;;;;;3.93;1.80;;;12.10;99.90;;;;;;492319;241;28625;-76
2021/10/02 04:24:28;;;;;;;1.70;1.60;;;12.10;99.90;;;;;;492360;241;28004;-77
2021/10/02 04:26:29;;;;;;;1.70;1.60;;;12.10;99.90;;;;;;492356;241;28129;-77
2021/10/02 04:28:31;;;;;;;1.90;1.80;;;12.10;99.90;;;;;;492367;241;28180;-76
2021/10/02 04:30:32;;;;;;;2.07;1.87;;;12.10;99.90;;;;;;492320;241;28044;-77
2021/10/02 04:32:34;;;;;;;2.43;2.00;;;12.10;99.90;;;;;;492304;241;28268;-77
2021/10/02 04:34:34;;;;;;;1.90;1.80;;;12.10;99.90;;;;;;492292;241;28561;-77
2021/10/02 04:36:36;;;;;;;2.10;1.90;;;12.10;99.90;;;;;;492294;241;28405;-76
2021/10/02 04:38:37;;;;;;;1.83;1.73;;;12.10;99.90;;;;;;492320;241;28790;-76
2021/10/02 04:40:38;;;;;;;1.60;1.50;;;12.20;99.90;;;;;;492311;241;29452;-76
2021/10/02 04:42:39;;;;;;;2.50;1.87;;;12.10;99.90;;;;;;492293;241;28160;-77
2021/10/02 04:44:41;;;;;;;2.50;1.83;;;12.10;99.90;;;;;;492301;241;28103;-76
2021/10/02 04:46:42;;;;;;;1.77;1.67;;;12.10;99.90;;;;;;492289;241;28142;-77
2021/10/02 04:48:43;;;;;;;1.90;1.80;;;12.10;99.90;;;;;;492297;241;27941;-76
2021/10/02 04:50:44;;;;;;;1.63;1.53;;;12.20;99.90;;;;;;492317;241;28143;-77
2021/10/02 04:52:46;;;;;;;1.97;1.77;;;12.20;99.90;;;;;;492347;241;28078;-77
2021/10/02 04:54:47;;;;;;;2.03;1.60;;;12.20;99.90;;;;;;492337;241;28513;-77
2021/10/02 04:56:48;;;;;;;1.90;1.80;;;12.30;99.90;;;;;;492348;241;28052;-76
2021/10/02 04:58:50;;;;;;;2.20;2.00;;;12.20;99.90;;;;;;492298;241;28803;-76
2021/10/02 05:00:51;;;;;;;3.10;1.60;;;12.20;99.90;;;;;;492313;241;28868;-77
2021/10/02 05:02:52;;;;;;;1.73;1.60;;;12.30;99.90;;;;;;492596;241;28620;-76
2021/10/02 05:04:53;;;;;;;2.30;2.10;;;12.20;99.90;;;;;;492628;241;28679;-77
2021/10/02 05:06:54;;;;;;;1.90;1.70;;;12.20;99.90;;;;;;492658;241;28148;-76
2021/10/02 05:08:56;;;;;;;2.33;2.00;;;12.20;99.90;;;;;;492566;241;28072;-77
2021/10/02 05:10:57;;;;;;;4.30;2.30;;;12.30;99.90;;;;;;492586;241;28081;-76
2021/10/02 05:12:58;;;;;;;1.60;1.50;;;12.30;99.90;;;;;;492597;241;28151;-76
2021/10/02 05:14:59;;;;;;;2.00;1.90;;;12.20;99.90;;;;;;492558;241;28206;-76
2021/10/02 05:17:02;;;;;;;3.73;1.80;;;12.20;99.90;;;;;;492505;241;28047;-76
2021/10/02 05:19:02;;;;;;;3.80;1.80;;;12.10;99.90;;;;;;492403;241;28086;-76
2021/10/02 05:21:03;;;;;;;1.87;1.70;;;12.00;99.90;;;;;;492504;241;28113;-77
2021/10/02 05:23:04;;;;;;;2.07;1.70;;;12.00;99.90;;;;;;492441;241;29127;-77
2021/10/02 05:25:06;;;;;;;1.80;1.70;;;11.90;99.90;;;;;;492404;241;28615;-77
2021/10/02 05:27:08;;;;;;;2.10;1.83;;;11.90;99.90;;;;;;492367;241;28553;-77
2021/10/02 05:29:08;;;;;;;1.60;1.50;;;11.80;99.90;;;;;;492379;241;27746;-76
2021/10/02 05:31:09;;;;;;;3.33;1.87;;;11.90;99.90;;;;;;492664;241;28133;-77
2021/10/02 05:33:11;;;;;;;2.10;1.90;;;11.80;99.90;;;;;;492656;241;27933;-76
2021/10/02 05:35:12;;;;;;;3.07;1.73;;;11.80;99.90;;;;;;492640;241;28030;-77
2021/10/02 05:37:14;;;;;;;3.10;1.60;;;11.70;99.90;;;;;;492664;241;27977;-76
2021/10/02 05:39:14;;;;;;;2.07;1.50;;;11.70;99.90;;;;;;492574;241;28178;-76
2021/10/02 05:41:16;;;;;;;1.83;1.73;;;11.70;99.90;;;;;;492451;241;27877;-77
2021/10/02 05:43:17;;;;;;;1.80;1.70;;;11.70;99.90;;;;;;492472;241;28419;-76
2021/10/02 05:45:18;;;;;;;1.93;1.60;;;11.70;99.90;;;;;;492442;241;28072;-77
2021/10/02 05:47:19;;;;;;;2.10;1.90;;;11.70;99.90;;;;;;492453;241;29497;-76
2021/10/02 05:49:21;;;;;;;1.80;1.70;;;11.80;99.90;;;;;;492414;241;28361;-76
2021/10/02 05:51:24;;;;;;;1.83;1.73;;;11.80;99.90;;;;;;492409;241;28468;-76
2021/10/02 05:53:23;;;;;;;2.37;1.70;;;11.80;99.90;;;;;;492371;241;28413;-76
2021/10/02 05:55:24;;;;;;;1.63;1.53;;;11.80;99.90;;;;;;492379;241;27960;-77
2021/10/02 05:57:26;;;;;;;2.13;1.93;;;11.80;99.90;;;;;;492397;241;28110;-77
2021/10/02 05:59:27;;;;;;;1.93;1.83;;;11.70;99.90;;;;;;492424;241;28258;-76
2021/10/02 06:01:28;;;;;;;1.83;1.70;;;11.70;99.90;;;;;;492415;241;28067;-76
2021/10/02 06:03:29;;;;;;;2.00;1.90;;;11.70;99.90;;;;;;492400;241;27838;-75
2021/10/02 06:05:31;;;;;;;2.57;1.60;;;11.70;99.90;;;;;;492429;241;27985;-76
2021/10/02 06:07:32;;;;;;;1.70;1.60;;;11.70;99.90;;;;;;492407;241;28345;-76
2021/10/02 06:09:33;;;;;;;1.93;1.70;;;11.70;99.90;;;;;;492438;241;27839;-76
2021/10/02 06:11:34;;;;;;;2.27;1.97;;;11.70;99.90;;;;;;492413;241;28580;-76
2021/10/02 06:13:36;;;;;;;1.90;1.80;;;11.70;99.90;;;;;;492380;241;28526;-76
2021/10/02 06:15:37;;;;;;;1.33;1.30;;;11.70;99.90;;;;;;492382;241;29129;-76
2021/10/02 06:17:38;;;;;;;2.20;1.53;;;11.60;99.90;;;;;;492386;241;28434;-76
2021/10/02 06:19:39;;;;;;;2.00;1.43;;;11.60;99.90;;;;;;492425;241;27943;-76
2021/10/02 06:21:41;;;;;;;1.60;1.50;;;11.60;99.90;;;;;;492420;241;27950;-76
2021/10/02 06:23:42;;;;;;;1.47;1.37;;;11.50;99.90;;;;;;492443;241;27926;-76
2021/10/02 06:25:43;;;;;;;1.60;1.50;;;11.50;99.90;;;;;;492424;241;28080;-76
2021/10/02 06:27:44;;;;;;;1.80;1.70;;;11.50;99.90;;;;;;492429;241;27995;-76
2021/10/02 06:29:46;;;;;;;1.90;1.80;;;11.50;99.90;;;;;;492452;241;28148;-76
2021/10/02 06:31:47;;;;;;;2.43;1.70;;;11.50;99.90;;;;;;492435;241;28458;-76
2021/10/02 06:33:48;;;;;;;1.80;1.70;;;11.50;99.90;;;;;;492419;241;28211;-76
2021/10/02 06:35:49;;;;;;;1.53;1.50;;;11.50;99.90;;;;;;492418;241;27964;-76
2021/10/02 06:37:51;;;;;;;1.80;1.70;;;11.50;99.90;;;;;;492541;241;28130;-76
2021/10/02 06:39:52;;;;;;;1.63;1.53;;;11.50;99.90;;;;;;492348;241;28531;-76
2021/10/02 06:41:53;;;;;;;1.63;1.53;;;11.50;99.90;;;;;;492415;241;28559;-75
2021/10/02 06:43:54;;;;;;;2.70;1.77;;;11.50;99.90;;;;;;492425;241;28402;-76
2021/10/02 06:45:56;;;;;;;2.20;1.57;;;11.50;99.90;;;;;;492441;241;27957;-77
2021/10/02 06:47:57;;;;;;;1.60;1.50;;;11.60;99.90;;;;;;492299;241;27752;-75
2021/10/02 06:49:59;;;;;;;2.97;1.60;;;11.60;99.90;;;;;;492330;241;27954;-75
2021/10/02 06:52:00;;;;;;;1.60;1.50;;;11.70;99.90;;;;;;492394;241;27986;-76
2021/10/02 06:54:01;;;;;;;3.03;1.50;;;11.70;99.90;;;;;;492404;241;27975;-76
2021/10/02 06:56:02;;;;;;;1.33;1.30;;;11.80;99.90;;;;;;492502;241;28358;-77
2021/10/02 06:58:03;;;;;;;2.30;1.73;;;11.90;99.90;;;;;;492379;241;27871;-77
2021/10/02 07:00:05;;;;;;;1.70;1.60;;;11.90;99.90;;;;;;492517;241;28166;-75
2021/10/02 07:02:06;;;;;;;1.90;1.80;;;11.90;99.90;;;;;;492393;241;28521;-77
2021/10/02 07:04:07;;;;;;;1.70;1.57;;;11.90;99.90;;;;;;492405;241;28652;-76
2021/10/02 07:06:08;;;;;;;1.77;1.60;;;11.90;99.90;;;;;;492412;241;28365;-77
2021/10/02 07:08:10;;;;;;;2.50;1.67;;;12.00;99.90;;;;;;492464;241;28239;-77
2021/10/02 07:10:11;;;;;;;1.90;1.80;;;12.10;99.90;;;;;;492404;241;27842;-77
2021/10/02 07:12:12;;;;;;;1.90;1.70;;;12.20;99.90;;;;;;492386;241;27898;-76
2021/10/02 07:14:13;;;;;;;2.43;1.70;;;12.30;99.90;;;;;;492401;241;27780;-77
2021/10/02 07:16:15;;;;;;;1.80;1.70;;;12.40;99.90;;;;;;492420;241;28060;-76
2021/10/02 07:18:17;;;;;;;1.87;1.67;;;12.50;99.90;;;;;;492462;241;28214;-78
2021/10/02 07:20:17;;;;;;;1.90;1.53;;;12.50;99.90;;;;;;492321;241;28557;-75
2021/10/02 07:22:18;;;;;;;1.30;1.30;;;12.50;99.90;;;;;;492425;241;27978;-76
2021/10/02 07:24:20;;;;;;;2.13;1.67;;;12.60;99.90;;;;;;492318;241;27982;-77
2021/10/02 07:26:21;;;;;;;2.13;1.57;;;12.60;99.90;;;;;;492385;241;28345;-77
2021/10/02 07:28:22;;;;;;;1.60;1.50;;;12.60;99.90;;;;;;492368;241;28654;-77
2021/10/02 07:30:23;;;;;;;1.50;1.43;;;12.70;99.90;;;;;;492358;241;28597;-76
2021/10/02 07:32:25;;;;;;;1.53;1.43;;;12.90;99.90;;;;;;492350;241;28078;-77
2021/10/02 07:34:26;;;;;;;2.77;1.80;;;13.10;99.90;;;;;;492364;241;28122;-76
2021/10/02 07:36:28;;;;;;;1.93;1.83;;;13.10;99.90;;;;;;492405;240;28193;-77
2021/10/02 07:38:28;;;;;;;2.10;1.90;;;13.20;99.90;;;;;;492354;241;28009;-77
2021/10/02 07:40:30;;;;;;;1.60;1.50;;;13.10;99.90;;;;;;492424;241;27913;-76
2021/10/02 07:42:31;;;;;;;2.00;1.77;;;13.00;99.90;;;;;;492355;241;28379;-76
2021/10/02 07:44:32;;;;;;;2.03;1.83;;;13.00;99.90;;;;;;492334;241;28094;-76
2021/10/02 07:46:33;;;;;;;1.83;1.73;;;13.00;99.90;;;;;;492358;241;28267;-76
2021/10/02 07:48:35;;;;;;;1.60;1.50;;;13.00;99.90;;;;;;492426;241;28313;-76
2021/10/02 07:50:36;;;;;;;1.80;1.70;;;13.10;99.90;;;;;;492361;241;29504;-77
2021/10/02 07:52:37;;;;;;;2.50;1.97;;;13.20;99.90;;;;;;492387;241;29274;-76
2021/10/02 07:54:40;;;;;;;2.30;1.80;;;13.30;99.90;;;;;;492427;241;28717;-76
2021/10/02 07:56:40;;;;;;;1.60;1.50;;;13.30;99.90;;;;;;492256;241;28275;-76
2021/10/02 07:58:41;;;;;;;3.27;1.60;;;13.40;99.90;;;;;;492352;241;28294;-75
2021/10/02 08:00:42;;;;;;;1.83;1.73;;;13.50;99.90;;;;;;492397;240;28094;-75
2021/10/02 08:02:43;;;;;;;5.23;1.80;;;13.60;99.90;;;;;;492397;241;28175;-76
2021/10/02 08:04:45;;;;;;;1.63;1.53;;;13.60;99.90;;;;;;492385;241;28133;-76
2021/10/02 08:06:46;;;;;;;2.27;1.80;;;13.50;99.90;;;;;;492359;241;28767;-76
2021/10/02 08:08:47;;;;;;;2.97;1.70;;;13.50;99.90;;;;;;492367;241;29109;-76
2021/10/02 08:10:48;;;;;;;2.93;2.07;;;13.50;99.90;;;;;;492401;241;28307;-76
2021/10/02 08:12:50;;;;;;;1.93;1.73;;;13.60;99.90;;;;;;492429;241;28200;-76
2021/10/02 08:14:51;;;;;;;2.80;2.10;;;13.60;99.90;;;;;;492375;240;28643;-77
2021/10/02 08:16:53;;;;;;;3.67;2.30;;;13.60;99.90;;;;;;492374;241;29102;-76
2021/10/02 08:18:53;;;;;;;3.30;2.37;;;13.70;99.90;;;;;;492378;241;28652;-77
2021/10/02 08:20:55;;;;;;;4.50;2.33;;;13.60;99.90;;;;;;492404;241;27973;-76
2021/10/02 08:22:56;;;;;;;2.80;2.00;;;13.70;99.90;;;;;;492369;241;28336;-76
2021/10/02 08:24:57;;;;;;;2.17;1.97;;;13.70;99.90;;;;;;492359;241;28701;-76
2021/10/02 08:26:58;;;;;;;3.97;2.20;;;13.80;99.90;;;;;;492357;241;27924;-76
2021/10/02 08:29:02;;;;;;;2.67;2.10;;;;;;;;;;492305;241;28728;-76
2021/10/02 08:31:04;;;;;;;2.00;1.80;;;;;;;;;;492340;240;28130;-76
2021/10/02 08:33:06;;;;;;;1.90;1.70;;;;;;;;;;492416;240;27880;-76
2021/10/02 08:35:08;;;;;;;3.83;1.73;;;;;;;;;;492386;239;27579;-76
2021/10/02 08:37:10;;;;;;;2.27;2.07;;;;;;;;;;492365;240;27591;-76
2021/10/02 08:39:13;;;;;;;2.00;1.90;;;;;;;;;;492380;240;28725;-76
2021/10/02 08:41:14;;;;;;;3.60;1.90;;;;;;;;;;492343;240;27864;-76
2021/10/02 08:43:16;;;;;;;2.27;1.77;;;;;;;;;;492403;241;27880;-77
2021/10/02 08:45:19;;;;;;;1.70;1.60;;;;;;;;;;492377;240;27438;-75
2021/10/02 08:47:21;;;;;;;2.33;2.00;;;;;;;;;;492367;240;27425;-75
2021/10/02 08:49:23;;;;;;;1.60;1.50;;;;;;;;;;492388;240;27430;-76
2021/10/02 08:51:25;;;;;;;2.43;1.43;;;;;;;;;;492380;240;27427;-76
2021/10/02 08:53:29;;;;;;;2.53;1.70;;;;;;;;;;492411;240;27912;-76
2021/10/02 08:55:29;;;;;;;2.23;1.70;;;;;;;;;;492241;241;27411;-76
2021/10/02 08:57:31;;;;;;;1.93;1.73;;;;;;;;;;492395;240;27389;-76
2021/10/02 08:59:33;;;;;;;1.90;1.80;;;;;;;;;;492408;240;27390;-76
2021/10/02 09:01:35;;;;;;;1.90;1.80;;;;;;;;;;492402;240;27394;-76
2021/10/02 09:03:38;;;;;;;2.30;2.10;;;;;;;;;;492342;241;28362;-76
2021/10/02 09:05:40;;;;;;;1.80;1.70;;;;;;;;;;492330;240;27414;-77
2021/10/02 09:07:41;;;;;;;2.73;1.70;;;14.50;99.90;;;;;;492402;241;29156;-76
2021/10/02 09:09:42;;;;;;;2.20;1.90;;;14.60;99.90;;;;;;492352;241;28701;-75
2021/10/02 09:11:43;;;;;;;1.87;1.50;;;14.60;99.90;;;;;;492318;241;28680;-78
2021/10/02 09:13:45;;;;;;;2.47;2.03;;;14.70;99.90;;;;;;492297;241;28149;-77
2021/10/02 09:15:46;;;;;;;1.90;1.77;;;14.70;99.90;;;;;;492304;241;28191;-76
2021/10/02 09:17:47;;;;;;;1.30;1.20;;;14.80;99.90;;;;;;492372;241;28194;-77
2021/10/02 09:19:48;;;;;;;1.73;1.63;;;14.80;99.90;;;;;;492291;241;28092;-76
2021/10/02 09:21:50;;;;;;;4.40;1.67;;;14.90;99.90;;;;;;492354;241;28077;-76
2021/10/02 09:23:51;;;;;;;1.97;1.87;;;15.00;99.90;;;;;;492311;241;28306;-77
2021/10/02 09:25:52;;;;;;;1.50;1.40;;;15.10;99.90;;;;;;492340;241;28692;-77
2021/10/02 09:27:53;;;;;;;4.03;1.73;;;15.40;99.90;;;;;;492329;241;28342;-77
2021/10/02 09:29:55;;;;;;;3.07;1.67;;;15.60;99.90;;;;;;492313;241;29162;-76
2021/10/02 09:31:56;;;;;;;1.83;1.50;;;15.60;99.90;;;;;;492319;241;29261;-77
2021/10/02 09:33:57;;;;;;;2.67;1.70;;;15.70;99.90;;;;;;492368;241;29166;-77
2021/10/02 09:35:58;;;;;;;1.90;1.80;;;15.90;99.90;;;;;;492292;241;29191;-76
2021/10/02 09:38:00;;;;;;;2.13;2.03;;;15.90;99.90;;;;;;492333;241;28625;-76
2021/10/02 09:40:01;;;;;;;1.73;1.63;;;15.90;99.90;;;;;;492388;241;28745;-77
2021/10/02 09:42:02;;;;;;;2.83;1.50;;;15.80;99.90;;;;;;492414;241;28688;-77
2021/10/02 09:44:03;;;;;;;1.93;1.67;;;15.80;99.90;;;;;;492390;241;28740;-76
2021/10/02 09:46:05;;;;;;;2.20;1.60;;;15.70;99.90;;;;;;492393;241;28660;-76
2021/10/02 09:48:06;;;;;;;1.80;1.70;;;15.80;99.90;;;;;;492381;241;28645;-77
2021/10/02 09:50:07;;;;;;;1.50;1.40;;;15.70;99.90;;;;;;492375;241;28692;-77
2021/10/02 09:52:08;;;;;;;1.53;1.43;;;15.70;99.90;;;;;;492427;241;29227;-77
2021/10/02 09:54:10;;;;;;;1.70;1.60;;;15.70;99.90;;;;;;492357;241;29180;-77
2021/10/02 09:56:11;;;;;;;1.60;1.50;;;15.70;99.90;;;;;;492352;241;29171;-76
2021/10/02 09:58:12;;;;;;;2.40;1.70;;;15.70;99.90;;;;;;492321;241;29089;-76
2021/10/02 10:00:13;;;;;;;2.13;1.67;;;15.80;99.90;;;;;;492317;241;28743;-76
2021/10/02 10:02:15;;;;;;;1.73;1.63;;;15.80;99.90;;;;;;492380;241;28676;-76
2021/10/02 10:04:16;;;;;;;2.17;1.67;;;15.90;99.90;;;;;;492459;241;28630;-76
2021/10/02 10:06:17;;;;;;;2.30;1.47;;;15.90;99.90;;;;;;492371;241;28684;-76
2021/10/02 10:08:18;;;;;;;2.30;1.60;;;16.00;99.90;;;;;;492382;241;28639;-78
2021/10/02 10:10:20;;;;;;;1.60;1.50;;;16.20;99.90;;;;;;492365;241;28641;-76
2021/10/02 10:12:21;;;;;;;1.70;1.60;;;16.20;99.90;;;;;;492378;241;28699;-76
2021/10/02 10:14:22;;;;;;;3.30;1.63;;;16.30;99.90;;;;;;492311;241;28766;-76
2021/10/02 10:16:23;;;;;;;1.60;1.50;;;16.30;99.90;;;;;;492351;241;29267;-77
2021/10/02 10:18:25;;;;;;;1.50;1.40;;;16.30;99.90;;;;;;492384;241;29884;-76
2021/10/02 10:20:26;;;;;;;1.57;1.30;;;16.40;99.90;;;;;;492329;241;29180;-76
2021/10/02 10:22:27;;;;;;;1.60;1.50;;;16.40;99.90;;;;;;492346;241;29169;-76
2021/10/02 10:24:28;;;;;;;1.40;1.30;;;16.50;99.90;;;;;;492276;241;28762;-76
2021/10/02 10:26:30;;;;;;;1.60;1.50;;;16.60;99.90;;;;;;492289;241;28654;-76
2021/10/02 10:28:31;;;;;;;2.50;1.77;;;16.60;99.90;;;;;;492325;241;28667;-77
2021/10/02 10:30:34;;;;;;;1.63;1.47;;;16.70;99.90;;;;;;492290;241;28636;-77
2021/10/02 10:32:33;;;;;;;2.67;1.70;;;16.80;99.90;;;;;;492193;241;29023;-76
2021/10/02 10:34:35;;;;;;;1.43;1.33;;;16.90;99.90;;;;;;492278;241;28770;-76
2021/10/02 10:36:37;;;;;;;2.10;1.60;;;17.00;99.90;;;;;;492279;241;29137;-77
2021/10/02 10:38:37;;;;;;;1.97;1.73;;;17.00;99.90;;;;;;492293;241;28707;-77
2021/10/02 10:40:38;;;;;;;1.60;1.50;;;17.00;99.90;;;;;;492316;241;29226;-77
2021/10/02 10:42:40;;;;;;;1.67;1.57;;;17.10;99.90;;;;;;492292;241;29124;-76
2021/10/02 10:44:54;;;;;;;1.50;1.40;;;17.20;99.90;;;;;;497910;233;35941;-76
2021/10/02 10:46:55;;;;;;;1.60;1.50;;;17.10;99.90;;;;;;494134;240;27942;-74
2021/10/02 10:48:58;;;;;;;1.60;1.50;;;17.10;99.90;;;;;;494100;240;29295;-76
2021/10/02 10:50:57;;;;;;;2.00;1.70;;;17.20;99.90;;;;;;493987;240;29304;-76
2021/10/02 10:52:59;;;;;;;1.90;1.53;;;17.40;99.90;;;;;;494152;239;29330;-77
2021/10/02 10:55:00;;;;;;;2.03;1.83;;;17.50;99.90;;;;;;494132;240;28839;-77
2021/10/02 10:57:01;;;;;;;1.53;1.43;;;17.40;99.90;;;;;;494118;240;28868;-77
2021/10/02 10:59:02;;;;;;;1.90;1.80;;;17.30;99.90;;;;;;494113;240;28903;-77
2021/10/02 11:01:04;;;;;;;1.53;1.43;;;17.30;99.90;;;;;;494143;240;28855;-77
2021/10/02 11:03:07;;;;;;;1.50;1.40;;;17.30;99.90;;;;;;494079;240;28794;-77
2021/10/02 11:05:06;;;;;;;1.53;1.43;;;17.30;99.90;;;;;;493972;240;28822;-76
2021/10/02 11:07:13;;;;;;;1.67;1.40;;;17.40;99.90;;;;;;494116;240;28808;-77
2021/10/02 11:09:09;;;;;;;1.83;1.67;;;17.40;99.90;;;;;;493638;240;28817;-77
2021/10/02 11:11:10;;;;;;;1.43;1.33;;;17.50;99.90;;;;;;494129;239;28901;-77
2021/10/02 11:13:11;;;;;;;1.60;1.50;;;17.50;99.90;;;;;;494149;239;29392;-76
2021/10/02 11:15:13;;;;;;;1.73;1.50;;;;;;;;;;494100;240;29378;-77
2021/10/02 11:17:14;;;;;;;1.33;1.23;;;17.60;99.90;;;;;;494143;240;28000;-77
2021/10/02 11:19:16;;;;;;;1.93;1.77;;;17.70;99.90;;;;;;494115;240;29630;-76
2021/10/02 11:21:17;;;;;;;1.40;1.30;;;17.60;99.90;;;;;;494167;240;28824;-77
2021/10/02 11:23:18;;;;;;;1.63;1.30;;;17.60;99.90;;;;;;494105;240;28897;-77